Time;durP1;ratioP1;P1;durP2;ratioP2;P2;SDS_P1;SDS_P2;PMS_P1;PMS_P2;Temp;Humidity;BMP_temperature;BMP_pressure;BME280_temperature;BME280_humidity;BME280_pressure;Samples;Min_cycle;Max_cycle;Signal;HPM_P1;HPM_P2
2022/12/27 00:01:17;;;;;;;6.07;2.20;;;;;;;2.90;100.00;148179.44;5031681;28;20033;-63
2022/12/27 00:03:42;;;;;;;8.70;2.60;;;;;;;2.92;100.00;148184.63;5027678;28;20025;-63
2022/12/27 00:06:10;;;;;;;12.30;2.40;;;;;;;2.88;100.00;148174.31;5034242;28;20034;-64
2022/12/27 00:08:35;;;;;;;9.33;2.40;;;;;;;2.91;100.00;148182.06;5032499;28;20076;-63
2022/12/27 00:11:07;;;;;;;14.00;2.60;;;;;;;2.91;100.00;148182.06;5033063;28;20140;-63
2022/12/27 00:13:32;;;;;;;13.32;2.30;;;;;;;2.79;100.00;148151.19;5031994;28;20025;-63
2022/12/27 00:16:05;;;;;;;11.77;3.03;;;;;;;2.86;100.00;148167.88;5031375;28;20048;-63
2022/12/27 00:18:31;;;;;;;8.17;2.03;;;;;;;2.90;100.00;148178.16;5029663;28;20026;-63
2022/12/27 00:20:58;;;;;;;5.07;1.77;;;;;;;3.06;100.00;148218.06;5016876;28;20052;-64
2022/12/27 00:23:24;;;;;;;6.37;1.53;;;;;;;3.13;100.00;148236.06;5027559;28;20025;-63
2022/12/27 00:25:50;;;;;;;8.90;2.07;;;;;;;3.11;100.00;148230.91;5029150;28;20045;-64
2022/12/27 00:28:15;;;;;;;6.80;2.00;;;;;;;3.05;100.00;148215.50;5032113;28;20083;-64
2022/12/27 00:30:41;;;;;;;9.30;1.97;;;;;;;3.06;100.00;148219.34;5031427;28;20064;-63
2022/12/27 00:33:06;;;;;;;11.27;2.57;;;;;;;3.06;100.00;148219.34;5031746;28;20057;-64
2022/12/27 00:35:31;;;;;;;12.30;2.30;;;;;;;3.03;100.00;148211.66;5031008;28;20028;-63
2022/12/27 00:37:57;;;;;;;5.77;2.20;;;;;;;3.08;100.00;148223.22;5033175;28;20025;-62
2022/12/27 00:40:22;;;;;;;7.13;2.50;;;;;;;3.02;100.00;148207.75;5031932;28;20033;-63
2022/12/27 00:42:47;;;;;;;7.40;1.90;;;;;;;2.98;100.00;148198.75;5028786;28;20029;-64
2022/12/27 00:45:13;;;;;;;8.80;2.93;;;;;;;3.04;100.00;148212.94;5027459;28;20451;-63
2022/12/27 00:47:39;;;;;;;7.53;2.43;;;;;;;2.99;100.00;148201.31;5032590;28;20033;-63
2022/12/27 00:50:05;;;;;;;11.43;2.37;;;;;;;3.06;100.00;148219.34;5029517;28;20033;-62
2022/12/27 00:52:30;;;;;;;12.63;2.53;;;;;;;3.07;100.00;148221.94;5027269;28;20500;-64
2022/12/27 00:54:55;;;;;;;11.27;2.73;;;;;;;3.07;100.00;148221.94;5032026;28;20037;-63
2022/12/27 00:57:21;;;;;;;10.17;2.50;;;;;;;3.04;100.00;148212.94;5032830;28;20541;-63
2022/12/27 00:59:46;;;;;;;7.63;2.50;;;;;;;3.12;100.00;148234.78;5030646;28;20025;-63
2022/12/27 01:02:12;;;;;;;7.03;1.97;;;;;;;3.01;100.00;148205.19;5030893;28;20034;-63
2022/12/27 01:04:37;;;;;;;10.03;2.93;;;;;;;3.17;100.00;148246.38;5025938;28;20125;-63
2022/12/27 01:07:02;;;;;;;7.13;1.67;;;;;;;3.21;100.00;148256.66;5032607;28;20048;-63
2022/12/27 01:09:28;;;;;;;9.83;2.67;;;;;;;3.24;100.00;148264.38;5027635;28;20037;-63
2022/12/27 01:11:53;;;;;;;8.10;2.53;;;;;;;3.15;100.00;148241.19;5033680;28;20458;-63
2022/12/27 01:14:19;;;;;;;7.10;1.87;;;;;;;3.28;100.00;148274.69;5030501;28;20029;-64
2022/12/27 01:16:44;;;;;;;8.50;2.47;;;;;;;3.27;100.00;148272.13;5031285;28;20025;-63
2022/12/27 01:19:09;;;;;;;8.50;2.50;;;;;;;3.27;100.00;148270.78;5031733;28;20439;-63
2022/12/27 01:21:35;;;;;;;10.47;2.80;;;;;;;3.26;100.00;148269.50;5029643;28;20039;-63
2022/12/27 01:24:00;;;;;;;14.20;3.00;;;;;;;3.26;100.00;148269.50;5029436;28;20035;-63
2022/12/27 01:26:25;;;;;;;8.40;2.60;;;;;;;3.23;100.00;148261.81;5031987;28;20091;-63
2022/12/27 01:28:52;;;;;;;12.77;2.87;;;;;;;3.23;100.00;148261.81;5030602;28;20026;-64
2022/12/27 01:31:21;;;;;;;6.70;2.83;;;;;;;3.42;100.00;148310.72;5026093;28;20029;-64
2022/12/27 01:33:47;;;;;;;12.53;3.30;;;;;;;3.42;100.00;148310.72;5028112;28;20588;-63
2022/12/27 01:36:15;;;;;;;8.53;3.00;;;;;;;3.41;100.00;148306.88;5032292;28;20025;-64
2022/12/27 01:38:42;;;;;;;9.87;3.30;;;;;;;3.28;100.00;148274.69;5031099;28;20029;-63
2022/12/27 01:43:57;;;;;;;7.23;2.43;;;;;;;3.29;100.00;148275.97;5025289;28;20040;-64
2022/12/27 01:46:22;;;;;;;6.90;2.47;;;;;;;3.19;100.00;148252.81;5025122;28;20052;-63
2022/12/27 01:48:48;;;;;;;12.27;3.77;;;;;;;3.19;100.00;148252.81;5016666;28;20493;-63
2022/12/27 01:51:15;;;;;;;10.93;3.53;;;;;;;3.13;100.00;148236.06;5032104;28;20473;-63
2022/12/27 01:53:45;;;;;;;6.27;3.00;;;;;;;3.12;100.00;148234.78;5030584;28;20057;-63
2022/12/27 01:56:17;;;;;;;11.80;3.40;;;;;;;3.17;100.00;148246.38;5031067;28;20033;-63
2022/12/27 01:58:54;;;;;;;5.00;1.80;;;;;;;3.25;100.00;148266.94;5029931;28;20099;-64
2022/12/27 02:01:25;;;;;;;10.80;3.97;;;;;;;3.25;100.00;148266.94;5031081;28;20102;-63
2022/12/27 02:03:55;;;;;;;13.77;3.70;;;;;;;3.25;100.00;148266.94;5026041;28;20401;-63
2022/12/27 02:06:22;;;;;;;7.40;2.70;;;;;;;3.25;100.00;148266.94;5029473;28;21233;-63
2022/12/27 02:08:54;;;;;;;9.97;2.97;;;;;;;3.25;100.00;148266.94;5031270;28;20032;-63
2022/12/27 02:11:49;;;;;;;8.67;3.70;;;;;;;3.21;100.00;148256.66;5027881;28;20034;-64
2022/12/27 02:14:12;;;;;;;6.28;2.30;;;;;;;3.15;100.00;148241.19;5029815;28;20033;-63
2022/12/27 02:16:38;;;;;;;13.33;2.60;;;;;;;3.18;100.00;148248.94;5018894;28;20038;-63
2022/12/27 02:19:15;;;;;;;11.93;3.70;;;;;;;3.22;100.00;148259.22;5025624;28;20499;-63
2022/12/27 02:22:10;;;;;;;10.60;3.03;;;;;;;3.27;100.00;148272.13;5018461;28;20033;-64
2022/12/27 02:24:57;;;;;;;7.83;2.70;;;;;;;3.32;100.00;148284.97;5017232;28;20052;-63
2022/12/27 02:27:45;;;;;;;10.20;3.50;;;;;;;3.38;100.00;148299.09;5027039;28;20037;-64
2022/12/27 02:30:12;;;;;;;8.50;3.37;;;;;;;3.38;100.00;148300.41;5029989;28;20025;-64
2022/12/27 02:33:00;;;;;;;12.87;3.67;;;;;;;3.44;100.00;148314.56;5013309;28;20029;-64
2022/12/27 02:35:32;;;;;;;7.93;3.03;;;;;;;3.42;100.00;148310.72;5024600;28;20119;-64
2022/12/27 02:38:11;;;;;;;9.43;3.10;;;;;;;3.48;100.00;148326.16;5030862;28;20064;-63
2022/12/27 02:53:02;;;;;;;8.27;3.20;;;;;;;3.36;100.00;148293.97;5029842;28;20044;-63
2022/12/27 02:58:58;;;;;;;10.20;3.07;;;;;;;3.39;100.00;148303.00;5028705;28;20044;-64
2022/12/27 03:04:46;;;;;;;15.40;4.27;;;;;;;3.36;100.00;148295.25;5029658;28;20787;-63
2022/12/27 03:07:39;;;;;;;9.90;3.70;;;;;;;3.36;100.00;148295.25;5028542;28;20041;-64
2022/12/27 03:16:54;;;;;;;9.30;3.50;;;;;;;3.69;100.00;148377.66;5026516;28;20091;-64
2022/12/27 03:33:11;;;;;;;14.87;3.70;;;;;;;3.50;100.00;148331.28;5024479;28;20507;-63
2022/12/27 03:33:22;;;;;;;15.93;4.70;;;;;;;3.53;100.00;148339.03;5032120;28;20047;-64
2022/12/27 03:38:51;;;;;;;14.47;4.90;;;;;;;3.48;100.00;148326.16;5033613;28;20040;-64
2022/12/27 03:44:23;;;;;;;10.07;4.00;;;;;;;3.84;100.00;148416.25;5031164;28;20481;-64
2022/12/27 03:46:54;;;;;;;16.53;4.97;;;;;;;3.79;100.00;148403.41;5034313;28;20030;-63
2022/12/27 03:49:32;;;;;;;10.07;3.72;;;;;;;3.77;100.00;148398.28;5030832;28;20053;-64
2022/12/27 03:52:22;;;;;;;15.50;4.23;;;;;;;3.77;100.00;148398.28;5031541;28;20044;-63
2022/12/27 03:54:50;;;;;;;14.77;4.63;;;;;;;3.77;100.00;148398.28;5031257;28;20132;-64
2022/12/27 03:57:20;;;;;;;11.90;4.23;;;;;;;3.94;100.00;148442.03;5030004;28;20108;-64
2022/12/27 03:59:45;;;;;;;13.17;4.03;;;;;;;3.95;100.00;148444.59;5028186;28;20029;-63
2022/12/27 04:02:11;;;;;;;15.33;5.00;;;;;;;3.76;100.00;148395.69;5029646;28;20058;-65
2022/12/27 04:04:37;;;;;;;17.13;5.37;;;;;;;3.70;100.00;148381.50;5032001;28;20025;-65
2022/12/27 04:07:03;;;;;;;13.67;4.93;;;;;;;3.87;100.00;148422.69;5033638;28;20087;-66
2022/12/27 04:36:48;;;;;;;9.63;3.67;;;;;;;3.91;100.00;148434.31;5028164;28;20036;-65
2022/12/27 04:39:14;;;;;;;15.77;4.50;;;;;;;3.93;100.00;148439.44;5030684;28;20029;-65
2022/12/27 04:55:58;;;;;;;12.83;5.40;;;;;;;4.04;100.00;148467.78;5032203;28;20068;-66
2022/12/27 04:58:24;;;;;;;17.63;5.47;;;;;;;4.11;100.00;148484.50;5033074;28;20044;-65
2022/12/27 05:03:35;;;;;;;15.07;5.27;;;;;;;4.14;100.00;148492.25;5032142;28;20032;-65
2022/12/27 05:06:01;;;;;;;12.43;4.40;;;;;;;4.14;100.00;148490.97;5029304;28;20044;-65
2022/12/27 05:14:00;;;;;;;10.87;5.13;;;;;;;4.17;100.00;148498.69;5031616;28;20041;-65
2022/12/27 05:16:36;;;;;;;7.97;3.40;;;;;;;3.92;100.00;148435.59;5030861;28;20040;-65
2022/12/27 05:19:03;;;;;;;5.83;3.47;;;;;;;4.01;100.00;148458.78;5030813;28;20021;-65
2022/12/27 05:21:28;;;;;;;11.33;4.03;;;;;;;4.01;100.00;148458.78;5031356;28;20021;-65
2022/12/27 05:26:38;;;;;;;13.37;5.33;;;;;;;4.01;100.00;148458.78;5024529;28;20393;-65
2022/12/27 05:29:05;;;;;;;10.83;4.00;;;;;;;4.01;100.00;148458.78;5030734;28;20018;-65
2022/12/27 05:31:32;;;;;;;11.97;4.83;;;;;;;4.01;100.00;148458.78;5029250;28;20075;-66
2022/12/27 05:33:57;;;;;;;10.10;3.70;;;;;;;4.01;100.00;148458.78;5030703;28;20060;-65
2022/12/27 05:36:23;;;;;;;9.43;4.10;;;;;;;4.01;100.00;148458.78;5030847;28;20501;-65
2022/12/27 05:38:49;;;;;;;10.57;4.20;;;;;;;4.09;100.00;148480.66;5030697;28;20421;-65
2022/12/27 05:41:15;;;;;;;8.10;4.33;;;;;;;4.09;100.00;148480.66;5030884;28;21067;-65
2022/12/27 05:43:41;;;;;;;13.97;4.40;;;;;;;4.14;100.00;148492.25;5031561;28;20441;-65
2022/12/27 05:46:08;;;;;;;12.63;4.43;;;;;;;4.14;100.00;148490.97;5023134;28;20044;-66
2022/12/27 05:48:34;;;;;;;13.47;4.50;;;;;;;4.15;100.00;148494.84;5036889;28;20113;-65
2022/12/27 05:51:08;;;;;;;13.17;4.67;;;;;;;4.14;100.00;148490.97;5031477;28;20037;-65
2022/12/27 05:53:33;;;;;;;13.80;5.03;;;;;;;4.14;100.00;148490.97;5029856;28;20021;-65
2022/12/27 05:55:59;;;;;;;8.73;4.23;;;;;;;4.14;100.00;148490.97;5030509;28;20026;-66
2022/12/27 05:58:25;;;;;;;10.60;4.40;;;;;;;4.06;100.00;148472.94;5029798;28;20021;-65
2022/12/27 06:00:51;;;;;;;11.30;5.37;;;;;;;4.06;100.00;148472.94;5029271;28;20024;-66
2022/12/27 06:03:16;;;;;;;9.10;4.40;;;;;;;4.06;100.00;148472.94;5029333;28;20030;-65
2022/12/27 06:05:41;;;;;;;10.50;4.80;;;;;;;4.06;100.00;148472.94;5028793;28;20021;-66
2022/12/27 06:08:08;;;;;;;8.30;3.30;;;;;;;4.06;100.00;148472.94;5030754;28;20163;-65
2022/12/27 06:10:34;;;;;;;11.70;4.67;;;;;;;4.06;100.00;148472.94;5030123;28;20025;-65
2022/12/27 06:13:00;;;;;;;10.17;4.70;;;;;;;4.18;100.00;148501.25;5032009;28;20024;-65
2022/12/27 06:15:26;;;;;;;10.33;4.07;;;;;;;4.18;100.00;148501.25;5030030;28;20043;-65
2022/12/27 06:17:51;;;;;;;11.77;5.27;;;;;;;4.18;100.00;148501.25;5027491;28;20030;-65
2022/12/27 06:20:17;;;;;;;9.63;4.27;;;;;;;4.18;100.00;148501.25;5029534;28;20021;-65
2022/12/27 06:22:42;;;;;;;13.13;5.57;;;;;;;4.07;100.00;148475.50;5031616;28;20480;-65
2022/12/27 06:25:08;;;;;;;12.17;4.53;;;;;;;4.07;100.00;148475.50;5029100;28;20384;-65
2022/12/27 06:27:34;;;;;;;10.40;4.70;;;;;;;4.07;100.00;148475.50;5030336;28;20029;-65
2022/12/27 06:29:59;;;;;;;11.77;4.77;;;;;;;4.04;100.00;148467.78;5029641;28;20033;-65
2022/12/27 06:32:24;;;;;;;10.17;4.23;;;;;;;4.04;100.00;148467.78;5030643;28;20060;-65
2022/12/27 06:34:50;;;;;;;10.30;4.80;;;;;;;4.11;100.00;148485.78;5026960;28;20112;-65
2022/12/27 06:37:16;;;;;;;14.93;5.30;;;;;;;4.11;100.00;148485.78;5031218;28;20061;-66
2022/12/27 06:39:43;;;;;;;12.67;5.10;;;;;;;4.11;100.00;148485.78;5029475;28;20083;-66
2022/12/27 06:42:08;;;;;;;8.93;4.13;;;;;;;4.11;100.00;148485.78;5030768;28;20017;-65
2022/12/27 06:44:33;;;;;;;17.60;5.67;;;;;;;4.11;100.00;148485.78;5028884;28;20285;-65
2022/12/27 06:46:59;;;;;;;10.20;4.37;;;;;;;4.11;100.00;148485.78;5030584;28;20025;-65
2022/12/27 06:49:24;;;;;;;12.97;5.50;;;;;;;4.11;100.00;148485.78;5029342;28;20120;-66
2022/12/27 06:51:50;;;;;;;15.50;5.40;;;;;;;4.13;100.00;148488.41;5031630;28;20029;-65
2022/12/27 06:54:15;;;;;;;14.43;6.50;;;;;;;4.11;100.00;148485.78;5027178;28;20037;-65
2022/12/27 06:56:41;;;;;;;15.63;5.90;;;;;;;4.09;100.00;148480.66;5029682;28;20117;-65
2022/12/27 06:59:07;;;;;;;14.10;5.87;;;;;;;4.09;100.00;148480.66;5029227;28;20033;-65
2022/12/27 07:01:32;;;;;;;14.80;5.87;;;;;;;4.09;100.00;148480.66;5028377;28;20021;-65
2022/12/27 07:03:59;;;;;;;11.57;5.00;;;;;;;4.09;100.00;148480.66;5029327;28;20512;-64
2022/12/27 07:06:28;;;;;;;9.63;4.60;;;;;;;4.09;100.00;148480.66;5030656;28;20120;-64
2022/12/27 07:08:53;;;;;;;18.27;5.97;;;;;;;4.09;100.00;148480.66;5033030;28;20083;-66
2022/12/27 07:11:20;;;;;;;22.90;6.47;;;;;;;3.98;100.00;148451.03;5034248;28;20029;-65
2022/12/27 07:13:49;;;;;;;17.93;6.40;;;;;;;3.88;100.00;148426.59;5030501;28;20100;-65
2022/12/27 07:16:17;;;;;;;11.67;5.10;;;;;;;3.88;100.00;148426.59;5030057;28;20022;-65
2022/12/27 07:18:43;;;;;;;18.63;6.10;;;;;;;3.88;100.00;148426.59;5033902;28;20440;-65
2022/12/27 07:21:12;;;;;;;12.83;5.70;;;;;;;3.88;100.00;148426.59;5033313;28;20045;-65
2022/12/27 07:23:38;;;;;;;10.67;4.60;;;;;;;3.88;100.00;148426.59;5035104;28;20985;-65
2022/12/27 07:26:15;;;;;;;12.10;4.97;;;;;;;3.88;100.00;148426.59;5025170;28;20022;-65
2022/12/27 07:28:41;;;;;;;10.00;4.77;;;;;;;4.00;100.00;148457.50;5030494;28;20057;-65
2022/12/27 07:31:07;;;;;;;11.13;4.73;;;;;;;4.00;100.00;148457.50;5030688;28;20517;-65
2022/12/27 07:33:33;;;;;;;10.57;4.87;;;;;;;4.00;100.00;148457.50;5032839;28;20025;-65
2022/12/27 07:36:00;;;;;;;10.27;3.97;;;;;;;4.00;100.00;148457.50;5030615;28;20104;-65
2022/12/27 07:38:26;;;;;;;9.13;3.97;;;;;;;4.00;100.00;148457.50;5034064;28;20033;-65
2022/12/27 07:40:52;;;;;;;16.20;5.57;;;;;;;4.00;100.00;148457.50;5033863;28;20033;-65
2022/12/27 07:43:19;;;;;;;12.33;5.20;;;;;;;4.00;100.00;148457.50;5033719;28;20021;-65
2022/12/27 07:45:44;;;;;;;10.07;4.23;;;;;;;4.00;100.00;148457.50;5031443;28;20021;-65
2022/12/27 07:48:09;;;;;;;12.73;6.37;;;;;;;4.00;100.00;148457.50;5034129;28;20805;-65
2022/12/27 07:50:35;;;;;;;15.13;5.90;;;;;;;4.00;100.00;148457.50;5031409;28;20033;-65
2022/12/27 07:53:00;;;;;;;10.93;4.50;;;;;;;4.00;100.00;148457.50;5029154;28;20030;-65
2022/12/27 07:55:25;;;;;;;12.50;4.80;;;;;;;4.00;100.00;148457.50;5033213;28;20028;-65
2022/12/27 07:57:51;;;;;;;14.27;4.90;;;;;;;4.00;100.00;148457.50;5034484;28;20021;-65
2022/12/27 08:00:16;;;;;;;14.27;4.73;;;;;;;4.00;100.00;148457.50;5032535;28;20044;-65
2022/12/27 08:02:42;;;;;;;10.50;4.50;;;;;;;4.00;100.00;148457.50;5030560;28;20022;-66
2022/12/27 08:05:08;;;;;;;13.90;4.83;;;;;;;4.00;100.00;148457.50;5028559;28;20482;-65
2022/12/27 08:07:35;;;;;;;18.70;3.50;;;;;;;4.00;100.00;148457.50;5031330;28;20075;-64
2022/12/27 08:10:01;;;;;;;13.63;4.77;;;;;;;4.00;100.00;148457.50;5033542;28;20033;-64
2022/12/27 08:12:26;;;;;;;10.27;3.97;;;;;;;4.00;100.00;148457.50;5030112;28;20473;-64
2022/12/27 08:14:52;;;;;;;12.33;4.17;;;;;;;4.00;100.00;148457.50;5033387;28;20575;-64
2022/12/27 08:17:23;;;;;;;11.43;3.73;;;;;;;4.00;100.00;148457.50;5020975;28;20503;-64
2022/12/27 08:19:53;;;;;;;14.10;5.13;;;;;;;4.00;100.00;148457.50;5022175;28;20084;-65
2022/12/27 08:22:19;;;;;;;12.17;4.97;;;;;;;4.00;100.00;148457.50;5033999;28;20029;-66
2022/12/27 08:24:44;;;;;;;10.73;4.60;;;;;;;4.00;100.00;148457.50;5029299;28;20030;-64
2022/12/27 08:27:10;;;;;;;13.37;4.53;;;;;;;4.00;100.00;148457.50;5023063;28;20374;-65
2022/12/27 08:29:36;;;;;;;12.17;4.23;;;;;;;4.00;100.00;148457.50;5033515;28;20115;-64
2022/12/27 08:32:02;;;;;;;13.00;4.83;;;;;;;4.00;100.00;148457.50;5030375;28;20025;-64
2022/12/27 08:34:27;;;;;;;9.23;3.90;;;;;;;4.00;100.00;148457.50;5032509;28;20037;-64
2022/12/27 08:36:53;;;;;;;9.53;4.47;;;;;;;4.00;100.00;148457.50;5023361;28;20068;-64
2022/12/27 08:39:19;;;;;;;9.03;4.07;;;;;;;4.00;100.00;148457.50;5033523;28;20026;-64
2022/12/27 08:41:44;;;;;;;12.17;5.33;;;;;;;4.00;100.00;148457.50;5033297;28;20056;-64
2022/12/27 08:44:10;;;;;;;10.03;3.37;;;;;;;4.00;100.00;148457.50;5032270;28;20025;-64
2022/12/27 08:46:36;;;;;;;12.13;4.80;;;;;;;4.00;100.00;148457.50;5033345;28;20075;-65
2022/12/27 08:49:01;;;;;;;13.23;5.77;;;;;;;4.00;100.00;148457.50;5033323;28;20049;-65
2022/12/27 08:51:27;;;;;;;7.97;4.20;;;;;;;4.00;100.00;148457.50;5032861;28;20025;-65
2022/12/27 08:53:52;;;;;;;15.70;5.57;;;;;;;4.00;100.00;148457.50;5028790;28;20041;-65
2022/12/27 08:56:18;;;;;;;11.70;5.20;;;;;;;4.00;100.00;148457.50;5029154;28;20033;-64
2022/12/27 08:58:43;;;;;;;8.07;4.17;;;;;;;4.00;100.00;148457.50;5024923;28;20025;-65
2022/12/27 09:01:09;;;;;;;11.90;4.70;;;;;;;4.00;100.00;148457.50;5018488;28;20528;-65
2022/12/27 09:03:35;;;;;;;9.43;3.97;;;;;;;4.00;100.00;148457.50;5026293;28;20024;-65
2022/12/27 09:06:21;;;;;;;12.50;5.70;;;;;;;4.00;100.00;148457.50;5026685;28;20060;-65
2022/12/27 09:08:47;;;;;;;12.83;6.33;;;;;;;4.00;100.00;148457.50;5023550;28;20036;-65
2022/12/27 09:11:21;;;;;;;13.97;6.50;;;;;;;4.00;100.00;148457.50;5032059;28;20021;-65
2022/12/27 09:13:47;;;;;;;19.50;7.27;;;;;;;4.00;100.00;148457.50;5031778;28;20032;-65
2022/12/27 09:16:15;;;;;;;13.87;7.00;;;;;;;4.00;100.00;148457.50;5032222;28;20025;-65
2022/12/27 09:18:41;;;;;;;16.17;7.10;;;;;;;4.00;100.00;148457.50;5032470;28;20041;-65
2022/12/27 09:21:10;;;;;;;16.27;6.83;;;;;;;4.00;100.00;148457.50;5031509;28;20477;-65
2022/12/27 09:23:37;;;;;;;12.87;6.13;;;;;;;4.00;100.00;148457.50;5030860;28;20033;-65
2022/12/27 09:26:07;;;;;;;10.90;5.40;;;;;;;4.00;100.00;148457.50;5032480;28;20078;-65
2022/12/27 09:28:33;;;;;;;19.10;8.13;;;;;;;4.00;100.00;148457.50;5027517;28;20021;-65
2022/12/27 09:30:59;;;;;;;18.43;8.17;;;;;;;4.00;100.00;148457.50;5028615;28;20040;-65
2022/12/27 09:33:24;;;;;;;15.43;7.10;;;;;;;4.00;100.00;148457.50;5030883;28;20412;-65
2022/12/27 09:35:49;;;;;;;15.20;7.77;;;;;;;4.00;100.00;148457.50;5031550;28;20028;-65
2022/12/27 09:38:15;;;;;;;16.97;8.53;;;;;;;4.00;100.00;148457.50;5032676;28;20044;-65
2022/12/27 09:40:51;;;;;;;20.00;7.70;;;;;;;4.00;100.00;148457.50;5031459;28;20029;-65
2022/12/27 09:43:18;;;;;;;17.53;7.27;;;;;;;4.00;100.00;148457.50;5032725;28;20022;-65
2022/12/27 09:45:49;;;;;;;11.63;5.13;;;;;;;4.00;100.00;148457.50;5030952;28;20028;-65
2022/12/27 09:48:23;;;;;;;21.63;4.97;;;;;;;4.00;100.00;148457.50;5032734;28;20075;-65
2022/12/27 09:50:54;;;;;;;16.13;6.30;;;;;;;4.00;100.00;148457.50;5025153;28;20055;-65
2022/12/27 09:53:42;;;;;;;18.03;6.30;;;;;;;4.00;100.00;148457.50;5032313;28;20033;-65
2022/12/27 09:56:11;;;;;;;14.80;6.47;;;;;;;4.00;100.00;148457.50;5028571;28;20060;-65
2022/12/27 09:58:48;;;;;;;16.83;6.33;;;;;;;4.71;100.00;148637.81;5030637;28;20069;-65
2022/12/27 10:01:49;;;;;;;15.17;4.27;;;;;;;4.79;100.00;148655.88;5013675;28;20042;-64
2022/12/27 10:04:16;;;;;;;13.40;6.00;;;;;;;4.79;100.00;148655.88;5017555;28;20037;-65
2022/12/27 10:06:48;;;;;;;16.20;4.40;;;;;;;4.73;100.00;148640.44;5029879;28;20029;-65
2022/12/27 10:09:41;;;;;;;12.50;5.25;;;;;;;4.57;100.00;148601.72;5031300;28;20025;-64
2022/12/27 10:12:34;;;;;;;12.43;3.77;;;;;;;4.57;100.00;148601.72;5031847;28;20108;-65
2022/12/27 10:15:21;;;;;;;11.77;5.83;;;;;;;4.38;100.00;148552.81;5030766;28;20045;-65
2022/12/27 10:18:12;;;;;;;11.90;6.07;;;;;;;4.38;100.00;148552.81;5024044;28;20104;-65
2022/12/27 10:20:47;;;;;;;16.10;5.07;;;;;;;4.38;100.00;148552.81;5030351;28;20029;-65
2022/12/27 10:23:21;;;;;;;10.97;5.90;;;;;;;4.38;100.00;148552.81;5030223;28;20060;-65
2022/12/27 10:25:52;;;;;;;12.33;4.20;;;;;;;4.38;100.00;148552.81;5019264;28;20112;-64
2022/12/27 10:28:45;;;;;;;15.00;5.10;;;;;;;4.38;100.00;148552.81;5028423;28;20037;-65
2022/12/27 10:31:15;;;;;;;13.93;5.73;;;;;;;4.38;100.00;148552.81;5026881;28;20037;-65
2022/12/27 10:33:41;;;;;;;14.80;6.40;;;;;;;4.38;100.00;148552.81;5031353;28;20032;-65
2022/12/27 10:36:10;;;;;;;10.57;4.93;;;;;;;4.38;100.00;148552.81;5030622;28;20033;-65
2022/12/27 10:38:35;;;;;;;9.80;5.07;;;;;;;4.38;100.00;148552.81;5029148;28;20095;-65
2022/12/27 10:41:25;;;;;;;16.50;6.10;;;;;;;4.38;100.00;148552.81;5026820;28;20033;-65
2022/12/27 10:43:53;;;;;;;10.63;4.90;;;;;;;4.38;100.00;148552.81;5022693;28;20473;-65
2022/12/27 10:46:22;;;;;;;15.10;5.80;;;;;;;4.38;100.00;148552.81;5030322;28;20041;-65
2022/12/27 10:49:00;;;;;;;13.47;5.27;;;;;;;4.38;100.00;148552.81;5031113;28;20040;-64
2022/12/27 10:51:32;;;;;;;10.97;4.53;;;;;;;4.38;100.00;148552.81;5029911;28;20071;-64
2022/12/27 10:54:01;;;;;;;11.50;5.00;;;;;;;4.38;100.00;148552.81;5023464;28;20178;-65
2022/12/27 10:56:30;;;;;;;20.07;5.90;;;;;;;4.38;100.00;148552.81;5030841;28;20033;-65
2022/12/27 10:59:15;;;;;;;15.13;4.87;;;;;;;4.38;100.00;148552.81;5031044;28;20112;-65
2022/12/27 11:01:42;;;;;;;11.13;5.43;;;;;;;4.38;100.00;148552.81;5031167;28;20036;-65
2022/12/27 11:04:09;;;;;;;14.37;5.03;;;;;;;4.38;100.00;148552.81;5029299;28;20037;-64
2022/12/27 11:06:34;;;;;;;10.43;5.60;;;;;;;4.38;100.00;148552.81;5022366;28;20087;-65
2022/12/27 11:09:23;;;;;;;9.37;4.60;;;;;;;4.38;100.00;148552.81;5030751;28;20029;-65
2022/12/27 11:11:49;;;;;;;7.57;3.83;;;;;;;4.38;100.00;148552.81;5020529;28;20132;-64
2022/12/27 11:14:19;;;;;;;15.60;5.80;;;;;;;4.38;100.00;148552.81;5016060;28;20128;-65
2022/12/27 11:16:47;;;;;;;14.17;4.97;;;;;;;4.38;100.00;148552.81;5022525;28;20114;-65
2022/12/27 11:19:25;;;;;;;9.60;4.60;;;;;;;4.38;100.00;148552.81;5027010;28;20033;-65
2022/12/27 11:21:52;;;;;;;12.33;3.77;;;;;;;4.38;100.00;148552.81;5027927;28;20075;-64
2022/12/27 11:24:20;;;;;;;12.80;4.23;;;;;;;4.38;100.00;148552.81;5029361;28;20025;-65
2022/12/27 11:26:58;;;;;;;11.13;4.53;;;;;;;4.38;100.00;148552.81;5017794;28;20117;-66
2022/12/27 11:29:27;;;;;;;11.23;4.63;;;;;;;4.38;100.00;148552.81;5015050;28;20441;-64
2022/12/27 11:31:53;;;;;;;10.33;4.73;;;;;;;4.38;100.00;148552.81;5029429;28;20021;-64
2022/12/27 11:34:35;;;;;;;10.83;4.87;;;;;;;4.38;100.00;148552.81;5030218;28;20426;-65
2022/12/27 11:37:14;;;;;;;10.30;3.17;;;;;;;4.38;100.00;148552.81;5028423;28;20044;-65
2022/12/27 11:39:54;;;;;;;11.70;4.30;;;;;;;4.38;100.00;148552.81;5027643;28;20025;-64
2022/12/27 11:42:37;;;;;;;10.33;4.73;;;;;;;4.38;100.00;148552.81;5030837;28;20572;-64
2022/12/27 11:45:17;;;;;;;9.87;4.37;;;;;;;4.38;100.00;148552.81;5030466;28;20023;-64
2022/12/27 11:47:52;;;;;;;17.47;4.33;;;;;;;4.38;100.00;148552.81;5030912;28;20029;-64
2022/12/27 11:50:52;;;;;;;14.33;4.60;;;;;;;4.38;100.00;148552.81;5022887;28;20022;-64
2022/12/27 11:53:37;;;;;;;12.97;4.30;;;;;;;4.38;100.00;148552.81;4988622;28;20397;-65
2022/12/27 11:56:20;;;;;;;10.43;4.00;;;;;;;4.38;100.00;148552.81;5034286;28;20029;-64
2022/12/27 11:59:18;;;;;;;12.80;4.43;;;;;;;4.38;100.00;148552.81;5033953;28;20036;-64
2022/12/27 12:02:21;;;;;;;12.57;4.23;;;;;;;4.38;100.00;148552.81;5017644;28;20385;-64
2022/12/27 12:05:06;;;;;;;15.37;4.23;;;;;;;4.38;100.00;148552.81;5027320;28;20045;-64
2022/12/27 12:07:56;;;;;;;17.27;5.63;;;;;;;4.38;100.00;148552.81;5032748;28;20065;-64
2022/12/27 12:10:30;;;;;;;13.57;4.87;;;;;;;4.38;100.00;148552.81;5033000;28;20041;-64
2022/12/27 12:13:08;;;;;;;7.67;3.63;;;;;;;4.38;100.00;148552.81;5017158;28;20026;-64
2022/12/27 12:15:42;;;;;;;10.80;4.20;;;;;;;4.38;100.00;148552.81;5031252;28;20053;-64
2022/12/27 12:18:29;;;;;;;17.90;5.30;;;;;;;4.38;100.00;148552.81;5017902;28;20091;-64
2022/12/27 12:21:13;;;;;;;10.03;4.17;;;;;;;4.38;100.00;148552.81;5032046;28;20036;-64
2022/12/27 12:23:38;;;;;;;13.63;3.77;;;;;;;4.38;100.00;148552.81;5032714;28;20579;-64
2022/12/27 12:26:20;;;;;;;11.63;3.90;;;;;;;4.38;100.00;148552.81;5030366;28;20029;-64
2022/12/27 12:29:04;;;;;;;;;;;;;;;4.38;100.00;148552.81;5033960;28;20087;-64
2022/12/27 12:31:55;;;;;;;12.00;3.97;;;;;;;4.38;100.00;148552.81;5033042;28;19909;-63
2022/12/27 12:34:29;;;;;;;9.40;3.40;;;;;;;4.38;100.00;148552.81;5026326;28;20449;-63
2022/12/27 12:37:04;;;;;;;10.40;3.50;;;;;;;4.38;100.00;148552.81;5031015;28;20037;-64
2022/12/27 12:40:12;;;;;;;11.80;3.70;;;;;;;4.38;100.00;148552.81;5033355;28;20053;-64
2022/12/27 12:43:02;;;;;;;11.00;3.90;;;;;;;4.38;100.00;148552.81;5014004;28;20395;-64
2022/12/27 12:45:34;;;;;;;8.93;3.30;;;;;;;6.36;100.00;149055.69;5023936;28;20037;-64
2022/12/27 12:48:05;;;;;;;9.55;2.45;;;;;;;6.33;100.00;149047.94;5032028;28;20029;-64
2022/12/27 12:50:51;;;;;;;10.18;3.45;;;;;;;6.33;100.00;149047.94;5032616;28;20095;-64
2022/12/27 12:53:54;;;;;;;8.03;2.70;;;;;;;6.33;100.00;149047.94;5031916;28;20504;-64
2022/12/27 12:56:22;;;;;;;;;;;;;;;6.33;100.00;149047.94;5024204;28;20477;-64
2022/12/27 12:59:09;;;;;;;12.60;3.50;;;;;;;6.33;100.00;149047.94;5033081;28;19917;-64
2022/12/27 13:02:02;;;;;;;10.77;3.40;;;;;;;6.33;100.00;149047.94;5031188;28;20365;-64
2022/12/27 13:05:07;;;;;;;9.47;3.23;;;;;;;6.33;100.00;149047.94;5026858;28;20033;-64
2022/12/27 13:07:52;;;;;;;10.43;2.83;;;;;;;6.33;100.00;149047.94;5021048;28;20432;-64
2022/12/27 13:10:40;;;;;;;15.60;3.37;;;;;;;6.33;100.00;149047.94;5032484;28;20478;-64
2022/12/27 13:13:28;;;;;;;12.47;3.57;;;;;;;6.33;100.00;149047.94;5025565;28;20018;-64
2022/12/27 13:16:08;;;;;;;9.63;3.10;;;;;;;6.33;100.00;149047.94;5031928;28;20031;-64